Time;durP1;ratioP1;P1;durP2;ratioP2;P2;SDS_P1;SDS_P2;PMS_P1;PMS_P2;Temp;Humidity;BMP_temperature;BMP_pressure;BME280_temperature;BME280_humidity;BME280_pressure;Samples;Min_cycle;Max_cycle;Signal;HPM_P1;HPM_P2
2024/04/03 00:01:31;;;;;;;;;1.00;1.00;;;;;14.00;79.70;100277.16;5122006;27;45329;-66
2024/04/03 00:03:57;;;;;;;;;1.00;0.00;;;;;14.01;80.11;100288.75;5138395;27;45655;-65
2024/04/03 00:06:22;;;;;;;;;0.00;0.00;;;;;13.89;80.24;100266.97;5121625;27;46240;-66
2024/04/03 00:08:47;;;;;;;;;0.25;0.00;;;;;13.85;80.30;100252.00;5122879;27;45409;-66
2024/04/03 00:11:13;;;;;;;;;0.00;0.00;;;;;13.99;80.66;100278.09;5121794;27;45564;-65
2024/04/03 00:13:38;;;;;;;;;1.00;1.00;;;;;13.87;80.56;100258.16;5121629;27;45312;-66
2024/04/03 00:16:04;;;;;;;;;1.00;1.00;;;;;14.03;80.43;100278.78;5122174;27;45384;-66
2024/04/03 00:18:29;;;;;;;;;0.00;0.00;;;;;13.95;80.76;100265.81;5121094;27;45454;-66
2024/04/03 00:21:04;;;;;;;;;1.00;0.00;;;;;13.83;80.42;100250.34;5122029;27;45405;-66
2024/04/03 00:23:30;;;;;;;;;0.25;0.00;;;;;14.01;80.94;100278.88;5119922;27;45523;-66
2024/04/03 00:26:05;;;;;;;;;0.00;0.00;;;;;14.03;80.76;100274.31;5119367;27;45956;-66
2024/04/03 00:28:30;;;;;;;;;0.00;0.00;;;;;13.94;80.68;100261.38;5122322;27;45479;-65
2024/04/03 00:31:00;;;;;;;;;0.00;0.00;;;;;14.02;80.84;100271.69;5111174;27;45540;-66
2024/04/03 00:33:25;;;;;;;;;0.00;0.00;;;;;13.99;81.04;100264.66;5119741;27;45532;-66
2024/04/03 00:36:08;;;;;;;;;0.00;0.00;;;;;13.96;81.22;100251.41;5121611;27;45338;-66
2024/04/03 00:38:34;;;;;;;;;0.00;0.00;;;;;13.84;81.18;100231.47;5120676;27;45919;-66
2024/04/03 00:41:02;;;;;;;;;0.00;0.00;;;;;13.85;81.17;100227.00;5121772;27;45371;-64
2024/04/03 00:43:28;;;;;;;;;0.00;0.00;;;;;13.96;81.16;100251.41;5128310;27;45987;-64
2024/04/03 00:45:56;;;;;;;;;1.00;1.00;;;;;13.99;81.33;100251.25;5121440;27;45400;-65
2024/04/03 00:48:21;;;;;;;;;1.00;1.00;;;;;13.99;81.51;100251.25;5115622;27;45707;-65
2024/04/03 00:50:48;;;;;;;;;1.00;0.75;;;;;13.86;81.74;100229.56;5115843;27;45337;-65
2024/04/03 00:53:15;;;;;;;;;0.50;0.50;;;;;13.99;81.29;100243.19;5114335;27;45392;-65
2024/04/03 00:55:41;;;;;;;;;0.50;0.50;;;;;13.85;81.65;100218.97;5117534;27;45456;-65
2024/04/03 00:58:06;;;;;;;;;0.00;0.00;;;;;13.86;81.68;100223.34;5121449;27;46575;-64
2024/04/03 01:00:33;;;;;;;;;0.00;0.00;;;;;13.89;81.80;100218.69;5121792;27;45370;-65
2024/04/03 01:02:59;;;;;;;;;1.00;0.00;;;;;13.93;82.29;100235.47;5118316;27;45456;-64
2024/04/03 01:05:24;;;;;;;;;0.00;0.00;;;;;13.92;82.08;100225.72;5114696;27;46950;-64
2024/04/03 01:07:49;;;;;;;;;0.75;0.50;;;;;13.78;82.32;100205.00;5116290;27;45779;-65
2024/04/03 01:10:15;;;;;;;;;0.00;0.00;;;;;13.75;82.40;100188.19;5134957;27;45506;-65
2024/04/03 01:12:40;;;;;;;;;2.00;1.00;;;;;13.79;82.71;100196.00;5121244;27;45511;-65
2024/04/03 01:15:06;;;;;;;;;0.25;0.25;;;;;13.88;82.88;100211.59;5121520;27;45420;-64
2024/04/03 01:17:32;;;;;;;;;0.00;0.00;;;;;13.71;83.41;100191.06;5127027;27;45454;-64
2024/04/03 01:19:57;;;;;;;;;1.00;1.00;;;;;13.83;82.91;100212.78;5121119;27;45346;-64
2024/04/03 01:22:22;;;;;;;;;2.00;1.00;;;;;13.82;83.46;100213.75;5112668;27;45625;-65
2024/04/03 01:24:48;;;;;;;;;0.00;0.00;;;;;13.75;83.37;100199.81;5119357;27;45271;-64
2024/04/03 01:27:13;;;;;;;;;1.00;1.00;;;;;13.80;83.79;100207.59;5119326;27;45873;-65
2024/04/03 01:29:38;;;;;;;;;2.00;0.50;;;;;13.57;83.59;100174.00;5121279;27;45400;-65
2024/04/03 01:32:05;;;;;;;;;0.00;0.00;;;;;13.61;83.95;100179.06;5117593;27;45278;-64
2024/04/03 01:34:31;;;;;;;;;0.00;0.00;;;;;13.64;84.19;100192.31;5111269;27;46384;-65
2024/04/03 01:36:57;;;;;;;;;0.00;0.00;;;;;13.47;84.21;100157.53;5119513;27;45353;-64
2024/04/03 01:39:23;;;;;;;;;0.00;0.00;;;;;13.47;84.67;100157.53;5118858;27;45965;-64
2024/04/03 01:41:48;;;;;;;;;0.25;0.25;;;;;13.45;85.23;100154.94;5119916;27;45383;-64
2024/04/03 01:44:13;;;;;;;;;1.00;1.00;;;;;13.63;84.68;100185.25;5120670;27;51230;-64
2024/04/03 01:46:39;;;;;;;;;1.25;1.00;;;;;13.57;84.86;100171.31;5116171;27;45390;-64
2024/04/03 01:49:04;;;;;;;;;1.00;1.00;;;;;13.54;85.11;100166.97;5114871;27;45595;-64
2024/04/03 01:51:29;;;;;;;;;1.25;1.25;;;;;13.60;85.57;100168.44;5131161;27;46465;-64
2024/04/03 01:53:54;;;;;;;;;0.00;0.00;;;;;13.51;85.53;100153.72;5119265;27;45436;-64
2024/04/03 01:56:20;;;;;;;;;1.00;1.00;;;;;13.63;85.64;100173.63;5120300;27;45346;-64
2024/04/03 01:58:45;;;;;;;;;0.50;0.50;;;;;13.53;85.55;100155.38;5120563;27;45327;-64
2024/04/03 02:01:10;;;;;;;;;1.00;0.00;;;;;13.45;85.75;100133.47;5120516;27;45349;-64
2024/04/03 02:03:36;;;;;;;;;1.00;0.00;;;;;13.53;85.91;100152.69;5111616;27;45782;-64
2024/04/03 02:06:02;;;;;;;;;0.00;0.00;;;;;13.61;85.84;100160.31;5116429;27;45524;-64
2024/04/03 02:08:28;;;;;;;;;1.00;1.00;;;;;13.44;86.13;100126.38;5135911;27;45701;-64
2024/04/03 02:10:53;;;;;;;;;0.00;0.00;;;;;13.45;86.03;100116.53;5117133;27;45549;-64
2024/04/03 02:13:18;;;;;;;;;0.25;0.25;;;;;13.59;85.99;100140.75;5114191;27;46852;-64
2024/04/03 02:15:52;;;;;;;;;0.25;0.25;;;;;13.42;86.37;100105.97;5114528;27;47259;-64
2024/04/03 02:18:17;;;;;;;;;0.00;0.00;;;;;13.61;86.39;100138.84;5136712;27;45431;-64
2024/04/03 02:20:42;;;;;;;;;0.50;0.50;;;;;13.54;86.06;100126.75;5125541;27;45597;-64
2024/04/03 02:23:08;;;;;;;;;0.50;0.50;;;;;13.63;86.38;100136.09;5117761;27;46082;-65
2024/04/03 02:25:33;;;;;;;;;1.25;1.00;;;;;13.54;86.24;100121.38;5109898;27;45370;-64
2024/04/03 02:27:58;;;;;;;;;1.00;1.00;;;;;13.47;86.52;100099.41;5120596;27;45308;-64
2024/04/03 02:30:24;;;;;;;;;1.00;1.00;;;;;13.63;86.69;100131.63;5134862;27;45407;-64
2024/04/03 02:32:49;;;;;;;;;1.00;1.00;;;;;13.44;86.35;100104.91;5117948;27;45354;-65
2024/04/03 02:35:15;;;;;;;;;1.00;1.00;;;;;13.40;86.80;100089.97;5120143;27;45288;-64
2024/04/03 02:37:40;;;;;;;;;1.00;1.00;;;;;13.56;86.97;100118.63;5118142;27;45312;-65
2024/04/03 02:40:06;;;;;;;;;1.00;0.00;;;;;13.62;86.94;100124.50;5118739;27;45430;-65
2024/04/03 02:42:31;;;;;;;;;1.00;1.00;;;;;13.59;87.15;100124.66;5112490;27;45492;-65
2024/04/03 02:44:57;;;;;;;;;1.00;1.00;;;;;13.55;87.24;100114.19;5118668;27;45831;-65
2024/04/03 02:47:22;;;;;;;;;1.00;1.00;;;;;13.54;87.23;100102.59;5118147;27;45405;-65
2024/04/03 02:49:47;;;;;;;;;0.00;0.00;;;;;13.41;87.17;100089.00;5114181;27;45424;-65
2024/04/03 02:52:13;;;;;;;;;0.75;0.75;;;;;13.32;87.37;100070.75;5109879;27;45518;-65
2024/04/03 02:54:38;;;;;;;;;0.00;0.00;;;;;13.42;87.69;100097.94;5125549;27;45451;-65
2024/04/03 02:57:04;;;;;;;;;1.00;1.00;;;;;13.33;87.68;100081.38;5117373;27;45492;-65
2024/04/03 02:59:29;;;;;;;;;0.75;0.75;;;;;13.45;88.02;100095.94;5116999;27;45430;-65
2024/04/03 03:01:54;;;;;;;;;1.00;1.00;;;;;13.33;88.26;100078.72;5119635;27;46030;-65
2024/04/03 03:04:24;;;;;;;;;1.00;1.00;;;;;13.43;88.27;100089.81;5118424;27;45449;-65
2024/04/03 03:06:50;;;;;;;;;0.75;0.00;;;;;13.28;88.09;100061.09;5115902;27;45708;-65
2024/04/03 03:09:20;;;;;;;;;1.25;0.75;;;;;13.49;88.41;100091.28;5110212;27;45452;-65
2024/04/03 03:11:45;;;;;;;;;1.00;1.00;;;;;13.47;88.18;100091.34;5119452;27;46171;-65
2024/04/03 03:14:10;;;;;;;;;1.00;1.00;;;;;13.32;88.24;100068.94;5116157;27;45397;-65
2024/04/03 03:16:36;;;;;;;;;0.00;0.00;;;;;13.47;88.61;100088.66;5138538;27;45346;-65
2024/04/03 03:19:01;;;;;;;;;1.00;1.00;;;;;13.48;88.38;100087.72;5138458;27;45585;-65
2024/04/03 03:21:26;;;;;;;;;1.00;0.25;;;;;13.42;88.60;100071.13;5122813;27;46360;-65
2024/04/03 03:23:51;;;;;;;;;2.75;0.00;;;;;13.41;88.40;100072.06;5138566;27;53675;-65
2024/04/03 03:26:17;;;;;;;;;0.00;0.00;;;;;13.30;88.17;100054.72;5123217;27;45356;-65
2024/04/03 03:28:42;;;;;;;;;0.75;0.75;;;;;13.34;88.45;100067.03;5122552;27;45400;-65
2024/04/03 03:31:08;;;;;;;;;2.00;0.75;;;;;13.56;88.04;100106.06;5121551;27;46334;-64
2024/04/03 03:33:34;;;;;;;;;0.75;0.00;;;;;13.42;88.54;100071.97;5123093;27;45367;-64
2024/04/03 03:35:59;;;;;;;;;0.00;0.00;;;;;13.44;88.57;100077.25;5138085;27;45386;-64
2024/04/03 03:38:25;;;;;;;;;0.00;0.00;;;;;13.25;88.80;100046.06;5123204;27;45308;-64
2024/04/03 03:40:54;;;;;;;;;0.00;0.00;;;;;13.45;88.70;100069.13;5122046;27;45538;-64
2024/04/03 03:43:20;;;;;;;;;0.50;0.50;;;;;13.45;89.23;100069.13;5121307;27;45543;-64
2024/04/03 03:45:47;;;;;;;;;2.00;1.00;;;;;13.36;89.27;100058.03;5122950;27;45419;-64
2024/04/03 03:48:13;;;;;;;;;0.75;0.75;;;;;13.32;89.08;100055.53;5122901;27;45538;-64
2024/04/03 03:53:23;;;;;;;;;0.00;0.00;;;;;13.42;89.72;100063.94;5111682;27;45308;-64
2024/04/03 03:55:48;;;;;;;;;0.50;0.25;;;;;13.36;89.55;100058.03;5122914;27;45626;-64
2024/04/03 03:58:14;;;;;;;;;0.50;0.00;;;;;13.40;89.62;100055.13;5122795;27;45456;-64
2024/04/03 04:00:40;;;;;;;;;1.00;1.00;;;;;13.44;89.51;100061.16;5122126;27;45330;-64
2024/04/03 04:03:06;;;;;;;;;2.00;0.00;;;;;13.40;89.54;100044.41;5112580;27;53591;-65
2024/04/03 04:05:31;;;;;;;;;0.00;0.00;;;;;13.38;89.62;100040.06;5117607;27;45444;-64
2024/04/03 04:07:57;;;;;;;;;0.25;0.25;;;;;13.34;89.96;100034.84;5122273;27;45455;-64
2024/04/03 04:10:22;;;;;;;;;0.00;0.00;;;;;13.40;89.83;100039.03;5110222;27;45462;-64
2024/04/03 04:12:48;;;;;;;;;1.75;0.75;;;;;13.34;89.62;100026.81;5119165;27;45425;-64
2024/04/03 04:15:13;;;;;;;;;1.00;1.00;;;;;13.32;89.89;100034.09;5121271;27;45438;-64
2024/04/03 04:17:39;;;;;;;;;0.00;0.00;;;;;13.21;89.81;100020.38;5122394;27;45375;-64
2024/04/03 04:20:07;;;;;;;;;1.00;1.00;;;;;13.29;89.94;100039.56;5121770;27;48811;-64
2024/04/03 04:22:35;;;;;;;;;1.50;0.00;;;;;13.22;90.16;100030.16;5121595;27;45350;-64
2024/04/03 04:25:02;;;;;;;;;0.75;0.75;;;;;13.28;90.32;100039.66;5130403;27;45310;-64
2024/04/03 04:27:28;;;;;;;;;0.75;0.75;;;;;13.29;90.45;100036.88;5108524;27;45671;-64
2024/04/03 04:29:54;;;;;;;;;1.00;1.00;;;;;13.22;90.71;100023.94;5119967;27;46241;-65
2024/04/03 04:32:19;;;;;;;;;1.00;0.00;;;;;13.24;90.73;100027.38;5120584;27;45461;-65
2024/04/03 04:34:44;;;;;;;;;2.75;1.00;;;;;13.19;90.78;100018.72;5120728;27;45960;-64
2024/04/03 04:37:10;;;;;;;;;0.00;0.00;;;;;13.10;90.58;99993.31;5118896;27;45590;-65
2024/04/03 04:39:35;;;;;;;;;0.75;0.75;;;;;13.21;90.72;100003.44;5116163;27;45442;-65
2024/04/03 04:42:02;;;;;;;;;1.75;1.00;;;;;13.26;90.64;100017.44;5121984;27;45520;-64
2024/04/03 04:44:27;;;;;;;;;0.00;0.00;;;;;13.27;90.68;100019.19;5120385;27;45491;-64
2024/04/03 04:46:58;;;;;;;;;0.25;0.00;;;;;13.13;90.90;99994.00;5118312;27;45753;-65
2024/04/03 04:49:24;;;;;;;;;0.00;0.00;;;;;13.05;90.99;99984.66;5114421;27;45581;-64
2024/04/03 04:51:50;;;;;;;;;1.75;1.00;;;;;13.22;91.19;100005.16;5121535;27;45560;-64
2024/04/03 04:54:17;;;;;;;;;0.75;0.75;;;;;13.10;90.93;99988.81;5122062;27;45475;-64
2024/04/03 04:56:45;;;;;;;;;1.00;1.00;;;;;13.11;91.02;99990.56;5118920;27;45520;-65
2024/04/03 04:59:11;;;;;;;;;1.00;1.00;;;;;13.11;91.17;99992.34;5113688;27;46358;-64
2024/04/03 05:01:38;;;;;;;;;0.00;0.00;;;;;13.20;91.04;100002.56;5121610;27;45363;-65
2024/04/03 05:04:05;;;;;;;;;0.75;0.00;;;;;13.21;91.24;100014.16;5121212;27;45700;-64
2024/04/03 05:06:31;;;;;;;;;0.00;0.00;;;;;13.26;91.34;100023.66;5120023;27;45669;-65
2024/04/03 05:08:56;;;;;;;;;0.00;0.00;;;;;13.05;91.37;99984.66;5129093;27;47591;-65
2024/04/03 05:11:22;;;;;;;;;1.00;1.00;;;;;13.25;91.44;100019.25;5134252;27;45499;-65
2024/04/03 05:13:48;;;;;;;;;1.00;1.00;;;;;13.29;91.36;100023.50;5121046;27;45552;-64
2024/04/03 05:16:18;;;;;;;;;1.00;1.00;;;;;13.18;91.34;100011.63;5113143;27;45466;-65
2024/04/03 05:18:44;;;;;;;;;1.00;0.00;;;;;13.20;91.71;100020.44;5114962;27;46069;-65
2024/04/03 05:21:10;;;;;;;;;1.00;1.00;;;;;13.14;91.77;100005.59;5134408;27;45454;-65
2024/04/03 05:23:35;;;;;;;;;1.00;1.00;;;;;13.14;91.69;100006.44;5121538;27;45449;-64
2024/04/03 05:26:03;;;;;;;;;1.00;1.00;;;;;13.24;91.85;100017.53;5117763;27;45613;-64
2024/04/03 05:28:31;;;;;;;;;1.00;1.00;;;;;13.24;91.75;100024.69;5117251;27;45507;-64
2024/04/03 05:31:05;;;;;;;;;1.00;1.00;;;;;13.23;91.78;100017.59;5116768;27;45481;-64
2024/04/03 05:33:33;;;;;;;;;3.00;2.00;;;;;13.26;91.86;100020.13;5119052;27;45716;-64
2024/04/03 05:36:00;;;;;;;;;1.75;1.75;;;;;13.26;91.90;100031.69;5132787;27;45439;-65
2024/04/03 05:38:27;;;;;;;;;1.25;1.00;;;;;13.25;91.99;100021.94;5120539;27;46690;-64
2024/04/03 05:40:53;;;;;;;;;3.00;2.00;;;;;13.22;91.91;100019.44;5121004;27;45533;-64
2024/04/03 05:43:19;;;;;;;;;1.00;1.00;;;;;13.26;92.27;100022.78;5118064;27;45518;-64
2024/04/03 05:45:45;;;;;;;;;1.00;0.75;;;;;13.12;92.33;100000.31;5121132;27;45382;-64
2024/04/03 05:48:11;;;;;;;;;1.00;1.00;;;;;13.15;92.33;100004.66;5118049;27;45723;-64
2024/04/03 05:50:37;;;;;;;;;1.00;1.00;;;;;13.19;92.14;100005.34;5120792;27;45335;-64
2024/04/03 05:53:03;;;;;;;;;2.25;1.00;;;;;13.23;92.25;100010.44;5136168;27;45393;-64
2024/04/03 05:55:29;;;;;;;;;1.00;1.00;;;;;13.21;92.35;100009.66;5118217;27;45395;-64
2024/04/03 05:57:54;;;;;;;;;1.25;1.25;;;;;13.24;92.25;100020.19;5118764;27;45419;-65
2024/04/03 06:00:20;;;;;;;;;3.00;2.00;;;;;13.30;92.75;100032.41;5120565;27;45308;-65
2024/04/03 06:02:45;;;;;;;;;0.00;0.00;;;;;13.08;92.31;100001.44;5120194;27;45423;-65
2024/04/03 06:05:10;;;;;;;;;1.00;1.00;;;;;13.26;92.64;100020.13;5114484;27;48792;-66
2024/04/03 06:07:36;;;;;;;;;2.00;1.00;;;;;13.27;92.50;100024.53;5118392;27;45465;-66
2024/04/03 06:10:03;;;;;;;;;3.75;1.00;;;;;13.27;92.66;100020.03;5117700;27;45589;-66
2024/04/03 06:12:29;;;;;;;;;3.00;3.00;;;;;13.23;92.75;100010.44;5124118;27;45312;-66
2024/04/03 06:14:54;;;;;;;;;3.00;3.00;;;;;13.33;92.38;100025.09;5147858;27;45541;-66
2024/04/03 06:17:20;;;;;;;;;2.00;2.00;;;;;13.38;92.66;100032.91;5128634;27;46382;-66
2024/04/03 06:19:45;;;;;;;;;1.75;1.75;;;;;13.30;92.37;100021.69;5126332;27;57196;-66
2024/04/03 06:22:10;;;;;;;;;2.50;2.00;;;;;13.42;92.44;100037.13;5127175;27;45465;-66
2024/04/03 06:24:37;;;;;;;;;1.25;1.00;;;;;13.45;92.70;100036.09;5141701;27;45511;-66
2024/04/03 06:27:03;;;;;;;;;1.00;1.00;;;;;13.40;92.67;100024.75;5141795;27;47097;-66
2024/04/03 06:29:29;;;;;;;;;1.00;1.00;;;;;13.44;92.78;100034.34;5140754;27;45402;-66
2024/04/03 06:31:54;;;;;;;;;1.00;1.00;;;;;13.46;92.62;100037.81;5123906;27;45509;-66
2024/04/03 06:34:19;;;;;;;;;1.00;0.50;;;;;13.44;92.65;100045.94;5134862;27;45403;-66
2024/04/03 06:36:45;;;;;;;;;1.00;1.00;;;;;13.46;92.89;100046.72;5120238;27;46078;-66
2024/04/03 06:39:10;;;;;;;;;2.00;0.00;;;;;13.45;93.14;100041.47;5123092;27;45475;-67
2024/04/03 06:41:35;;;;;;;;;1.75;1.75;;;;;13.30;92.88;100016.34;5129880;27;45899;-66
2024/04/03 06:44:01;;;;;;;;;2.00;2.00;;;;;13.47;92.67;100045.78;5134995;27;45650;-66
2024/04/03 06:46:26;;;;;;;;;1.00;1.00;;;;;13.31;92.82;100018.03;5121111;27;45547;-66
2024/04/03 06:48:51;;;;;;;;;2.00;2.00;;;;;13.42;92.95;100041.63;5117396;27;45372;-67
2024/04/03 06:51:17;;;;;;;;;2.00;0.50;;;;;13.48;93.05;100055.56;5119449;27;45355;-66
2024/04/03 06:53:42;;;;;;;;;1.00;1.00;;;;;13.48;92.94;100058.25;5119760;27;45546;-66
2024/04/03 06:56:08;;;;;;;;;1.00;1.00;;;;;13.33;92.96;100027.78;5118237;27;46409;-67
2024/04/03 06:58:40;;;;;;;;;2.75;1.00;;;;;13.47;93.02;100045.78;5134082;27;46096;-67
2024/04/03 07:01:06;;;;;;;;;2.00;1.00;;;;;13.40;92.94;100048.88;5119603;27;45381;-66
2024/04/03 07:03:34;;;;;;;;;0.00;0.00;;;;;13.38;92.96;100040.06;5122511;27;45587;-67
2024/04/03 07:06:00;;;;;;;;;1.00;1.00;;;;;13.45;93.08;100057.56;5118806;27;45447;-66
2024/04/03 07:08:26;;;;;;;;;1.00;1.00;;;;;13.56;93.20;100068.53;5132433;27;45342;-67
2024/04/03 07:10:51;;;;;;;;;2.50;1.50;;;;;13.51;93.09;100062.56;5121672;27;45459;-66
2024/04/03 07:13:17;;;;;;;;;1.00;1.00;;;;;13.49;93.33;100059.94;5112165;27;45396;-64
2024/04/03 07:15:49;;;;;;;;;1.75;1.75;;;;;13.52;93.43;100059.78;5134333;27;48033;-65
2024/04/03 07:18:16;;;;;;;;;0.75;0.75;;;;;13.54;93.40;100075.78;5119542;27;45496;-65
2024/04/03 07:20:42;;;;;;;;;1.00;1.00;;;;;13.55;93.59;100068.59;5112937;27;45495;-65
2024/04/03 07:23:08;;;;;;;;;2.00;1.00;;;;;13.52;93.88;100073.19;5124756;27;45677;-65
2024/04/03 07:25:33;;;;;;;;;1.00;1.00;;;;;13.55;93.68;100071.28;5117414;27;46112;-65
2024/04/03 07:28:11;;;;;;;;;1.00;1.00;;;;;13.50;93.84;100069.75;5117341;27;45486;-65
2024/04/03 07:30:36;;;;;;;;;1.00;1.00;;;;;13.40;94.10;100054.22;5113690;27;45696;-65
2024/04/03 07:33:04;;;;;;;;;1.00;1.00;;;;;13.56;94.24;100075.72;5112250;27;45473;-65
2024/04/03 07:35:29;;;;;;;;;1.00;1.00;;;;;13.32;94.15;100039.44;5114898;27;45685;-65
2024/04/03 07:37:54;;;;;;;;;3.75;1.00;;;;;13.40;94.13;100052.44;5119347;27;45464;-65
2024/04/03 07:40:20;;;;;;;;;1.00;0.00;;;;;13.58;94.22;100079.16;5118844;27;45431;-65
2024/04/03 07:42:45;;;;;;;;;1.00;1.00;;;;;13.38;94.32;100050.78;5117519;27;45679;-65
2024/04/03 07:45:10;;;;;;;;;1.00;1.00;;;;;13.57;94.25;100085.50;5114611;27;45422;-65
2024/04/03 07:47:36;;;;;;;;;0.50;0.50;;;;;13.59;94.75;100095.16;5110701;27;46170;-65
2024/04/03 07:50:06;;;;;;;;;0.75;0.75;;;;;13.41;94.88;100053.28;5134034;27;45305;-65
2024/04/03 07:52:32;;;;;;;;;2.00;2.00;;;;;13.59;94.93;100089.81;5107917;27;45699;-65
2024/04/03 07:54:58;;;;;;;;;0.25;0.25;;;;;13.61;94.77;100101.31;5117578;27;45511;-65
2024/04/03 07:57:23;;;;;;;;;0.00;0.00;;;;;13.56;94.86;100099.84;5111838;27;45461;-65
2024/04/03 07:59:49;;;;;;;;;1.00;1.00;;;;;13.73;94.36;100120.38;5120841;27;45726;-65
2024/04/03 08:02:15;;;;;;;;;1.00;1.00;;;;;13.70;94.45;100111.53;5118034;27;45474;-65
2024/04/03 08:04:41;;;;;;;;;1.00;1.00;;;;;13.69;94.63;100100.91;5117337;27;45517;-65
2024/04/03 08:07:07;;;;;;;;;1.00;1.00;;;;;13.78;94.72;100119.19;5118685;27;45357;-65
2024/04/03 08:09:33;;;;;;;;;0.00;0.00;;;;;13.79;94.91;100110.16;5124897;27;45428;-65
2024/04/03 08:12:00;;;;;;;;;0.00;0.00;;;;;13.61;94.70;100089.72;5108478;27;45784;-65
2024/04/03 08:14:25;;;;;;;;;2.00;1.00;;;;;13.64;94.95;100079.69;5126353;27;45666;-65
2024/04/03 08:16:50;;;;;;;;;4.25;1.00;;;;;13.70;94.53;100095.44;5117716;27;45506;-65
2024/04/03 08:19:16;;;;;;;;;1.00;1.00;;;;;13.68;95.13;100083.06;5114252;27;45489;-65
2024/04/03 08:21:44;;;;;;;;;1.50;1.00;;;;;13.85;94.69;100099.09;5109434;27;46977;-65
2024/04/03 08:24:10;;;;;;;;;1.00;1.00;;;;;13.92;94.95;100113.03;5118838;27;48312;-65
2024/04/03 08:26:36;;;;;;;;;0.75;0.75;;;;;13.96;94.74;100119.94;5109571;27;45421;-65
2024/04/03 08:29:01;;;;;;;;;1.00;1.00;;;;;13.94;94.80;100111.13;5118189;27;45616;-65
2024/04/03 08:31:26;;;;;;;;;1.00;1.00;;;;;13.85;94.42;100095.56;5116270;27;57847;-65
2024/04/03 08:33:53;;;;;;;;;3.00;1.00;;;;;13.95;95.32;100106.59;5117966;27;49208;-65
2024/04/03 08:36:18;;;;;;;;;2.00;1.00;;;;;13.94;94.95;100107.56;5107458;27;45829;-65
2024/04/03 08:38:44;;;;;;;;;2.00;1.00;;;;;13.96;94.93;100105.66;5119466;27;45459;-65
2024/04/03 08:41:09;;;;;;;;;0.00;0.00;;;;;13.90;94.94;100097.00;5111246;27;45558;-65
2024/04/03 08:43:35;;;;;;;;;1.00;1.00;;;;;14.10;94.45;100132.59;5119435;27;45492;-65
2024/04/03 08:46:00;;;;;;;;;1.00;1.00;;;;;13.96;94.04;100103.84;5120506;27;45481;-66
2024/04/03 08:48:27;;;;;;;;;1.00;1.00;;;;;14.19;94.61;100141.94;5111711;27;45790;-66
2024/04/03 08:50:53;;;;;;;;;1.00;1.00;;;;;14.20;93.90;100138.28;5109135;27;45608;-65
2024/04/03 08:53:28;;;;;;;;;3.25;1.00;;;;;14.22;94.20;100137.25;5115795;27;48303;-65
2024/04/03 08:55:54;;;;;;;;;3.00;2.00;;;;;14.21;94.50;100132.81;5120637;27;45655;-65
2024/04/03 08:58:21;;;;;;;;;1.00;1.00;;;;;14.04;94.21;100093.53;5106947;27;45820;-65
2024/04/03 09:00:48;;;;;;;;;1.00;1.00;;;;;14.26;94.29;100137.94;5115832;27;45498;-65
2024/04/03 09:03:15;;;;;;;;;1.00;1.00;;;;;14.31;94.41;100143.06;5114694;27;46388;-67
2024/04/03 09:05:41;;;;;;;;;1.75;1.00;;;;;14.16;94.43;100115.25;5119330;27;45447;-65
2024/04/03 09:08:09;;;;;;;;;3.75;2.00;;;;;14.18;94.20;100113.34;5127489;27;45509;-65
2024/04/03 09:10:43;;;;;;;;;2.75;1.00;;;;;14.23;94.21;100111.25;5116740;27;45384;-65
2024/04/03 09:13:09;;;;;;;;;1.00;1.00;;;;;14.31;94.05;100125.13;5116950;27;45383;-65
2024/04/03 09:15:35;;;;;;;;;0.25;0.25;;;;;14.29;93.92;100121.66;5114150;27;45784;-65
2024/04/03 09:18:05;;;;;;;;;1.00;1.00;;;;;14.33;93.37;100125.88;5112687;27;45505;-65
2024/04/03 09:20:31;;;;;;;;;1.00;1.00;;;;;14.46;93.56;100142.16;5112789;27;45831;-65
2024/04/03 09:22:57;;;;;;;;;2.50;1.00;;;;;14.49;93.48;100144.66;5111827;27;45499;-65
2024/04/03 09:25:31;;;;;;;;;1.50;1.00;;;;;14.54;93.61;100141.72;5118356;27;46437;-65
2024/04/03 09:28:04;;;;;;;;;1.00;1.00;;;;;14.51;93.68;100132.00;5119544;27;45631;-65
2024/04/03 09:30:30;;;;;;;;;4.00;2.00;;;;;14.59;93.67;100147.72;5113727;27;45631;-65
2024/04/03 09:33:03;;;;;;;;;0.00;0.00;;;;;14.50;92.77;100127.63;5115491;27;46072;-65
2024/04/03 09:35:33;;;;;;;;;2.50;2.50;;;;;14.53;93.04;100137.28;5132547;27;45860;-65
2024/04/03 09:38:00;;;;;;;;;2.25;2.00;;;;;14.60;92.95;100144.06;5115070;27;45845;-65
2024/04/03 09:40:31;;;;;;;;;2.00;2.00;;;;;14.55;93.00;100130.00;5108621;27;46420;-63
2024/04/03 09:43:01;;;;;;;;;4.00;1.50;;;;;14.51;92.81;100139.22;5108749;27;46411;-63
2024/04/03 09:45:27;;;;;;;;;1.00;1.00;;;;;14.46;93.17;100124.22;5116870;27;45496;-63
2024/04/03 09:48:01;;;;;;;;;2.00;2.00;;;;;14.57;93.13;100142.41;5109933;27;46051;-63
2024/04/03 09:50:39;;;;;;;;;4.50;4.50;;;;;14.73;93.60;100158.50;5139189;27;45585;-63
2024/04/03 09:53:13;;;;;;;;;5.75;3.00;;;;;14.77;93.33;100168.13;5118707;27;45713;-63
2024/04/03 09:55:40;;;;;;;;;3.50;3.00;;;;;14.83;92.50;100172.25;5129876;27;45380;-63
2024/04/03 09:58:18;;;;;;;;;3.75;2.50;;;;;14.91;92.94;100182.56;5122111;27;45432;-63
2024/04/03 10:00:54;;;;;;;;;2.75;2.75;;;;;14.98;92.73;100174.06;5128634;27;45726;-63
2024/04/03 10:03:21;;;;;;;;;5.00;2.00;;;;;15.03;92.60;100172.91;5113684;27;46216;-63
2024/04/03 10:05:48;;;;;;;;;3.75;2.75;;;;;15.00;92.52;100168.56;5104023;27;45858;-63
2024/04/03 10:08:17;;;;;;;;;3.50;3.00;;;;;15.06;92.02;100167.34;5138832;27;45591;-63
2024/04/03 10:10:46;;;;;;;;;6.25;2.00;;;;;15.04;91.82;100158.53;5127147;27;45741;-63
2024/04/03 10:13:21;;;;;;;;;2.50;2.00;;;;;15.08;91.17;100154.69;5126465;27;48749;-63
2024/04/03 10:15:58;;;;;;;;;2.00;1.75;;;;;15.21;91.38;100179.84;5120734;27;45651;-63
2024/04/03 10:18:26;;;;;;;;;2.50;2.25;;;;;15.14;91.04;100165.06;5114869;27;45546;-63
2024/04/03 10:20:51;;;;;;;;;4.75;3.50;;;;;15.15;91.10;100158.72;5116959;27;45483;-63
2024/04/03 10:23:17;;;;;;;;;2.00;2.00;;;;;15.20;91.52;100164.66;5132967;27;47382;-63
2024/04/03 10:25:42;;;;;;;;;3.00;3.00;;;;;15.35;90.96;100187.06;5114074;27;45482;-63
2024/04/03 10:28:09;;;;;;;;;4.75;4.00;;;;;15.36;91.04;100186.13;5119556;27;45625;-63
2024/04/03 10:30:35;;;;;;;;;4.25;3.25;;;;;15.40;90.83;100184.97;5124131;27;45623;-63
2024/04/03 10:33:01;;;;;;;;;2.25;2.00;;;;;15.39;90.65;100183.25;5123504;27;46204;-63
2024/04/03 10:35:29;;;;;;;;;4.75;2.50;;;;;15.34;90.39;100174.59;5116629;27;45561;-63
2024/04/03 10:37:57;;;;;;;;;2.25;2.25;;;;;15.43;90.37;100192.00;5116061;27;45483;-63
2024/04/03 10:40:23;;;;;;;;;2.00;2.00;;;;;15.43;90.68;100184.78;5124095;27;45534;-63
2024/04/03 10:42:49;;;;;;;;;2.25;2.00;;;;;15.46;90.42;100186.44;5125980;27;48389;-63
2024/04/03 10:45:15;;;;;;;;;3.00;2.00;;;;;15.48;90.15;100189.88;5117095;27;45275;-63
2024/04/03 10:47:40;;;;;;;;;2.50;2.00;;;;;15.34;90.28;100155.78;5117657;27;45516;-63
2024/04/03 10:50:08;;;;;;;;;3.25;3.25;;;;;15.40;90.21;100158.06;5118462;27;45337;-63
2024/04/03 10:52:35;;;;;;;;;4.50;3.25;;;;;15.57;90.34;100178.56;5118871;27;47592;-63
2024/04/03 10:55:01;;;;;;;;;5.00;3.00;;;;;15.55;91.01;100175.97;5118417;27;45698;-63
2024/04/03 10:57:26;;;;;;;;;3.00;3.00;;;;;15.62;90.94;100187.22;5122884;27;45514;-63
2024/04/03 10:59:55;;;;;;;;;4.25;3.00;;;;;15.58;91.33;100180.28;5116948;27;54793;-63
2024/04/03 11:02:21;;;;;;;;;4.00;3.00;;;;;15.60;91.56;100182.88;5117129;27;48195;-64
2024/04/03 11:04:48;;;;;;;;;3.00;1.25;;;;;15.59;91.76;100175.78;5115396;27;45731;-63
2024/04/03 11:07:14;;;;;;;;;4.00;2.25;;;;;15.65;91.91;100180.75;5117353;27;45484;-63
2024/04/03 11:09:40;;;;;;;;;5.00;3.25;;;;;15.71;91.87;100194.69;5118799;27;45436;-63
2024/04/03 11:12:12;;;;;;;;;5.00;3.00;;;;;15.66;91.20;100177.97;5117883;27;46153;-63
2024/04/03 11:14:38;;;;;;;;;3.25;2.00;;;;;15.68;91.38;100183.25;5118586;27;45684;-63
2024/04/03 11:17:07;;;;;;;;;2.25;2.00;;;;;15.72;91.82;100176.75;5130331;27;45749;-63
2024/04/03 11:19:36;;;;;;;;;2.00;2.00;;;;;15.76;91.54;100178.31;5106648;27;45636;-63
2024/04/03 11:22:03;;;;;;;;;3.25;1.25;;;;;15.82;91.10;100185.09;5113072;27;46475;-63
2024/04/03 11:24:28;;;;;;;;;2.00;2.00;;;;;15.89;90.87;100190.03;5113650;27;45915;-63